Time;durP1;ratioP1;P1;durP2;ratioP2;P2;SDS_P1;SDS_P2;PMS_P1;PMS_P2;Temp;Humidity;BMP_temperature;BMP_pressure;BME280_temperature;BME280_humidity;BME280_pressure;Samples;Min_cycle;Max_cycle;Signal;HPM_P1;HPM_P2
2023/05/29 00:01:46;;;;;;;5.10;4.60;;;;;;;12.29;100.00;96277.84;5010724;28;102244;-61
2023/05/29 00:04:21;;;;;;;5.60;4.30;;;;;;;12.22;100.00;96271.97;4993220;28;105022;-61
2023/05/29 00:06:48;;;;;;;4.70;4.20;;;;;;;12.24;100.00;96275.19;5010732;28;101901;-61
2023/05/29 00:09:15;;;;;;;11.17;4.03;;;;;;;12.33;100.00;96270.94;5010415;28;104969;-61
2023/05/29 00:11:42;;;;;;;5.50;5.00;;;;;;;12.11;100.00;96276.47;5010158;28;105244;-61
2023/05/29 00:14:14;;;;;;;5.83;4.30;;;;;;;12.05;100.00;96279.41;5011773;28;101840;-61
2023/05/29 00:16:43;;;;;;;5.07;4.10;;;;;;;12.04;100.00;96272.47;5012021;28;102619;-61
2023/05/29 00:19:12;;;;;;;4.27;3.87;;;;;;;11.86;100.00;96281.72;5009600;28;103713;-61
2023/05/29 00:21:38;;;;;;;5.13;3.70;;;;;;;11.86;100.00;96267.59;5010257;28;102058;-61
2023/05/29 00:24:15;;;;;;;4.67;4.17;;;;;;;11.77;100.00;96277.16;5013039;28;105169;-61
2023/05/29 00:26:42;;;;;;;5.40;4.30;;;;;;;11.83;100.00;96266.25;5010279;28;101860;-61
2023/05/29 00:29:10;;;;;;;5.23;3.70;;;;;;;11.86;100.00;96272.91;5011285;28;102341;-61
2023/05/29 00:31:36;;;;;;;5.07;4.33;;;;;;;11.83;100.00;96270.78;5009662;28;105901;-61
2023/05/29 00:34:47;;;;;;;5.10;4.07;;;;;;;11.77;100.00;96269.97;5010354;28;101992;-61
2023/05/29 00:37:16;;;;;;;4.80;4.27;;;;;;;11.72;100.00;96269.94;5009993;28;105292;-61
2023/05/29 00:39:42;;;;;;;5.60;4.13;;;;;;;11.79;100.00;96269.69;5009360;28;104187;-61
2023/05/29 00:42:10;;;;;;;5.23;3.73;;;;;;;11.68;100.00;96274.19;5006412;28;101866;-61
2023/05/29 00:45:02;;;;;;;4.53;3.77;;;;;;;11.62;100.00;96258.44;4999949;28;105195;-60
2023/05/29 00:47:30;;;;;;;4.23;3.80;;;;;;;11.66;100.00;96268.31;5012550;28;106003;-61
2023/05/29 00:49:58;;;;;;;4.27;3.87;;;;;;;11.67;100.00;96261.91;5009599;28;105532;-61
2023/05/29 00:52:27;;;;;;;5.10;4.33;;;;;;;11.69;100.00;96259.81;5006140;28;103634;-61
2023/05/29 00:55:00;;;;;;;5.13;4.30;;;;;;;11.39;100.00;96269.50;4989727;28;101957;-61
2023/05/29 00:57:28;;;;;;;6.20;4.50;;;;;;;11.39;100.00;96269.50;4994027;28;103578;-60
2023/05/29 00:59:56;;;;;;;4.10;3.70;;;;;;;11.30;100.00;96271.84;4996726;28;105435;-61
2023/05/29 01:02:24;;;;;;;4.63;3.80;;;;;;;11.11;100.00;96273.28;4996924;28;101925;-61
2023/05/29 01:04:54;;;;;;;6.20;3.90;;;;;;;11.25;100.00;96273.66;5009906;28;104198;-61
2023/05/29 01:07:21;;;;;;;4.30;3.90;;;;;;;11.24;100.00;96267.50;5010483;28;102571;-61
2023/05/29 01:09:49;;;;;;;3.93;3.63;;;;;;;11.14;100.00;96272.78;5014535;28;101994;-61
2023/05/29 01:12:27;;;;;;;4.37;3.80;;;;;;;11.09;100.00;96271.94;5005639;28;105570;-61
2023/05/29 01:15:23;;;;;;;5.33;4.23;;;;;;;11.11;100.00;96272.47;4989760;28;101808;-61
2023/05/29 01:18:13;;;;;;;5.87;3.60;;;;;;;10.84;100.00;96277.88;4979762;28;105220;-61
2023/05/29 01:20:47;;;;;;;4.17;3.87;;;;;;;10.75;100.00;96278.63;4998319;28;105491;-61
2023/05/29 01:23:41;;;;;;;5.93;4.27;;;;;;;10.95;100.00;96273.47;5022941;28;101769;-61
2023/05/29 01:26:32;;;;;;;6.47;4.60;;;;;;;10.92;100.00;96279.28;5005325;28;103621;-61
2023/05/29 01:29:03;;;;;;;4.70;4.00;;;;;;;10.95;100.00;96278.78;5008377;28;105375;-61
2023/05/29 01:31:31;;;;;;;6.67;4.27;;;;;;;10.80;100.00;96276.00;5009649;28;102238;-61
2023/05/29 01:34:13;;;;;;;4.40;4.00;;;;;;;10.93;100.00;96280.88;5012843;28;102052;-61
2023/05/29 01:36:46;;;;;;;6.17;4.10;;;;;;;11.00;100.00;96284.13;5009260;28;101802;-61
2023/05/29 01:39:14;;;;;;;5.73;4.23;;;;;;;11.07;100.00;96287.38;5010586;28;102323;-61
2023/05/29 01:41:44;;;;;;;5.30;4.20;;;;;;;11.00;100.00;96282.25;5009920;28;102541;-61
2023/05/29 01:44:17;;;;;;;5.30;4.20;;;;;;;10.99;100.00;96277.19;5008972;28;102114;-61
2023/05/29 01:46:47;;;;;;;5.57;4.40;;;;;;;11.08;100.00;96273.00;5009228;28;104961;-61
2023/05/29 01:49:15;;;;;;;4.50;4.10;;;;;;;11.02;100.00;96279.34;5008382;28;105403;-61
2023/05/29 01:51:43;;;;;;;4.27;3.70;;;;;;;10.97;100.00;96281.97;5009150;28;102377;-61
2023/05/29 01:54:16;;;;;;;5.07;4.27;;;;;;;10.87;100.00;96274.72;5009440;28;102311;-61
2023/05/29 01:56:45;;;;;;;6.23;4.20;;;;;;;10.86;100.00;96274.97;5013179;28;101979;-61
2023/05/29 01:59:13;;;;;;;5.57;4.30;;;;;;;10.83;100.00;96268.31;5008530;28;105819;-61
2023/05/29 02:01:42;;;;;;;4.73;3.93;;;;;;;10.59;100.00;96266.25;5008423;28;105937;-61
2023/05/29 02:04:25;;;;;;;4.03;3.43;;;;;;;10.43;100.00;96270.63;5008689;28;101911;-61
2023/05/29 02:06:53;;;;;;;5.37;3.60;;;;;;;10.43;100.00;96267.16;5010501;28;102301;-61
2023/05/29 02:09:22;;;;;;;4.67;3.57;;;;;;;10.33;100.00;96267.88;5007957;28;106046;-61
2023/05/29 02:11:51;;;;;;;4.10;3.70;;;;;;;10.33;100.00;96265.22;5010194;28;101849;-61
2023/05/29 02:14:51;;;;;;;4.10;3.70;;;;;;;10.31;100.00;96263.88;4988629;28;105155;-61
2023/05/29 02:17:19;;;;;;;5.27;3.93;;;;;;;10.26;100.00;96263.81;5025891;28;105124;-61
2023/05/29 02:19:47;;;;;;;4.23;3.83;;;;;;;10.39;100.00;96272.19;5010051;28;102907;-61
2023/05/29 02:22:14;;;;;;;5.53;3.87;;;;;;;10.44;100.00;96266.91;5007824;28;105808;-61
2023/05/29 02:24:46;;;;;;;4.80;4.10;;;;;;;10.41;100.00;96266.63;5005094;28;102393;-60
2023/05/29 02:27:15;;;;;;;4.27;3.87;;;;;;;10.45;100.00;96267.69;5001054;28;105400;-61
2023/05/29 02:29:42;;;;;;;4.67;4.00;;;;;;;10.46;100.00;96258.69;5009469;28;102627;-61
2023/05/29 02:32:09;;;;;;;4.67;3.80;;;;;;;10.50;100.00;96263.25;5005137;28;101976;-61
2023/05/29 02:34:46;;;;;;;4.57;3.93;;;;;;;10.29;100.00;96266.75;4988620;28;103544;-61
2023/05/29 02:37:13;;;;;;;5.53;4.00;;;;;;;10.38;100.00;96256.47;5009206;28;102547;-61
2023/05/29 02:39:40;;;;;;;5.77;4.07;;;;;;;10.38;100.00;96264.44;5013188;28;101829;-61
2023/05/29 02:42:07;;;;;;;4.50;4.10;;;;;;;10.39;100.00;96271.38;5005670;28;105531;-61
2023/05/29 02:45:20;;;;;;;5.20;4.00;;;;;;;10.41;100.00;96271.94;5004913;28;102043;-61
2023/05/29 02:47:48;;;;;;;6.20;4.47;;;;;;;10.36;100.00;96263.91;4997442;28;105384;-61
2023/05/29 02:50:15;;;;;;;5.90;4.47;;;;;;;10.36;100.00;96269.22;5004328;28;104149;-60
2023/05/29 02:52:42;;;;;;;5.30;4.50;;;;;;;10.38;100.00;96269.78;5009771;28;101877;-61
2023/05/29 02:55:32;;;;;;;5.13;4.20;;;;;;;10.29;100.00;96273.91;5008108;28;105332;-61
2023/05/29 02:57:59;;;;;;;4.17;3.77;;;;;;;10.25;100.00;96264.88;5007561;28;105612;-61
2023/05/29 03:00:28;;;;;;;4.37;3.27;;;;;;;10.21;100.00;96272.53;5007886;28;101949;-61
2023/05/29 03:03:00;;;;;;;7.47;4.00;;;;;;;10.24;100.00;96271.25;5007512;28;105170;-61
2023/05/29 03:05:32;;;;;;;4.67;4.00;;;;;;;10.13;100.00;96264.19;4988312;28;101929;-61
2023/05/29 03:07:59;;;;;;;5.00;4.50;;;;;;;10.15;100.00;96270.06;5005459;28;103524;-61
2023/05/29 03:10:26;;;;;;;6.37;4.00;;;;;;;10.00;100.00;96272.53;5010936;28;105532;-61
2023/05/29 03:12:54;;;;;;;8.27;4.17;;;;;;;10.00;100.00;96267.22;5011286;28;101981;-61
2023/05/29 03:15:26;;;;;;;5.97;4.03;;;;;;;10.02;100.00;96267.75;5011497;28;104934;-61
2023/05/29 03:17:53;;;;;;;5.80;4.00;;;;;;;10.05;100.00;96268.13;5010739;28;105093;-61
2023/05/29 03:20:27;;;;;;;4.30;3.70;;;;;;;10.07;100.00;96271.31;5011056;28;101871;-61
2023/05/29 03:22:57;;;;;;;4.40;4.00;;;;;;;10.10;100.00;96281.47;5011459;28;104818;-61
2023/05/29 03:25:40;;;;;;;5.20;4.40;;;;;;;10.10;100.00;96272.69;5013682;28;106074;-61
2023/05/29 03:28:08;;;;;;;4.53;4.13;;;;;;;10.05;100.00;96272.63;5010845;28;105009;-61
2023/05/29 03:30:36;;;;;;;5.43;4.70;;;;;;;9.96;100.00;96272.22;5010173;28;105431;-61
2023/05/29 03:33:03;;;;;;;4.63;4.23;;;;;;;9.99;100.00;96285.03;5011262;28;101871;-61
2023/05/29 03:35:50;;;;;;;4.77;3.80;;;;;;;9.96;100.00;96282.03;5010733;28;103739;-61
2023/05/29 03:38:17;;;;;;;4.87;4.07;;;;;;;9.96;100.00;96280.19;5006786;28;103928;-61
2023/05/29 03:40:44;;;;;;;4.47;3.70;;;;;;;10.02;100.00;96287.16;5000239;28;101936;-61
2023/05/29 03:43:11;;;;;;;4.73;4.30;;;;;;;10.08;100.00;96285.41;5007388;28;105167;-61
2023/05/29 03:45:38;;;;;;;4.40;3.93;;;;;;;10.09;100.00;96281.72;5000391;28;102526;-61
2023/05/29 03:48:06;;;;;;;4.27;3.87;;;;;;;10.03;100.00;96283.47;5015679;28;101846;-61
2023/05/29 03:50:33;;;;;;;5.00;4.17;;;;;;;10.11;100.00;96287.56;5010089;28;105251;-61
2023/05/29 03:53:02;;;;;;;5.03;4.53;;;;;;;9.99;100.00;96292.19;5010864;28;101997;-61
2023/05/29 03:55:53;;;;;;;5.43;4.70;;;;;;;9.96;100.00;96296.13;5007147;28;104882;-61
2023/05/29 03:58:20;;;;;;;4.80;4.10;;;;;;;10.01;100.00;96292.72;5006808;28;105118;-61
2023/05/29 04:00:48;;;;;;;4.80;4.30;;;;;;;10.09;100.00;96292.34;5007017;28;101982;-61
2023/05/29 04:03:19;;;;;;;4.13;3.53;;;;;;;10.13;100.00;96296.88;4990913;28;105047;-61
2023/05/29 04:05:46;;;;;;;4.93;3.90;;;;;;;10.20;100.00;96297.47;5006010;28;104971;-61
2023/05/29 04:08:15;;;;;;;5.03;4.40;;;;;;;10.28;100.00;96298.91;5005808;28;102015;-61
2023/05/29 04:10:43;;;;;;;5.67;4.73;;;;;;;10.33;100.00;96301.59;4989974;28;105678;-61
2023/05/29 04:13:10;;;;;;;5.43;4.13;;;;;;;10.40;100.00;96299.53;5001475;28;102272;-61
2023/05/29 04:15:39;;;;;;;4.70;3.97;;;;;;;10.47;100.00;96300.16;4994342;28;105155;-61
2023/05/29 04:18:06;;;;;;;5.97;5.33;;;;;;;10.58;100.00;96301.88;4998794;28;105333;-61
2023/05/29 04:20:34;;;;;;;6.10;5.20;;;;;;;10.70;100.00;96313.97;4996470;28;102017;-61
2023/05/29 04:23:01;;;;;;;6.77;4.43;;;;;;;10.75;100.00;96316.63;5010185;28;105175;-61
2023/05/29 04:26:14;;;;;;;6.50;4.77;;;;;;;10.78;100.00;96310.00;5009645;28;105865;-61
2023/05/29 04:28:43;;;;;;;5.03;4.37;;;;;;;10.83;100.00;96313.53;5009795;28;102093;-61
2023/05/29 04:31:14;;;;;;;4.47;4.07;;;;;;;10.90;100.00;96305.34;5012833;28;105265;-61
2023/05/29 04:33:55;;;;;;;4.30;3.90;;;;;;;11.00;100.00;96313.38;5010214;28;101847;-61
2023/05/29 04:36:25;;;;;;;4.77;4.13;;;;;;;11.13;100.00;96323.59;5010079;28;105114;-61
2023/05/29 04:38:54;;;;;;;5.77;4.37;;;;;;;11.25;100.00;96321.56;5006395;28;105058;-61
2023/05/29 04:41:23;;;;;;;4.00;3.63;;;;;;;11.28;100.00;96324.50;5023561;28;101895;-61
2023/05/29 04:43:58;;;;;;;5.53;3.90;;;;;;;11.36;100.00;96321.38;5006634;28;104882;-61
2023/05/29 04:46:31;;;;;;;5.93;4.20;;;;;;;11.46;100.00;96331.28;5009519;28;105275;-61
2023/05/29 04:48:57;;;;;;;4.83;4.00;;;;;;;11.57;100.00;96331.09;5006573;28;102021;-61
2023/05/29 04:51:24;;;;;;;5.77;4.80;;;;;;;11.70;100.00;96329.84;4997702;28;105338;-61
2023/05/29 04:53:53;;;;;;;6.10;5.00;;;;;;;11.72;100.00;96328.53;4992689;28;104427;-61
2023/05/29 04:56:20;;;;;;;6.03;4.70;;;;;;;11.91;100.00;96334.22;4997051;28;105403;-61
2023/05/29 04:58:48;;;;;;;8.00;4.90;;;;;;;12.02;100.00;96333.22;5007424;28;105462;-61
2023/05/29 05:01:17;;;;;;;5.20;4.70;;;;;;;12.17;100.00;96330.63;5006417;28;101899;-61
2023/05/29 05:04:01;;;;;;;4.97;4.47;;;;;;;12.36;100.00;96339.72;4991309;28;102373;-60
2023/05/29 05:06:28;;;;;;;5.90;5.33;;;;;;;12.53;100.00;96343.78;4989348;28;105181;-61
2023/05/29 05:08:56;;;;;;;5.93;5.33;;;;;;;12.61;100.00;96339.81;5005711;28;102270;-61
2023/05/29 05:11:24;;;;;;;6.37;4.97;;;;;;;12.57;100.00;96336.88;4989400;28;105260;-61
2023/05/29 05:13:52;;;;;;;6.43;5.10;;;;;;;12.81;100.00;96343.31;5007537;28;105241;-61
2023/05/29 05:16:21;;;;;;;5.97;5.37;;;;;;;12.92;100.00;96333.44;5012942;28;101899;-61
2023/05/29 05:18:48;;;;;;;6.17;5.20;;;;;;;13.02;100.00;96338.84;5008419;28;105713;-61
2023/05/29 05:21:15;;;;;;;7.50;5.30;;;;;;;13.12;100.00;96341.47;5009254;28;102004;-61
2023/05/29 05:23:43;;;;;;;5.37;4.87;;;;;;;13.28;100.00;96343.09;5009283;28;104808;-61
2023/05/29 05:26:11;;;;;;;7.23;5.57;;;;;;;13.39;100.00;96344.69;5005317;28;105713;-61
2023/05/29 05:28:38;;;;;;;7.57;5.00;;;;;;;13.31;100.00;96340.66;4989253;28;101914;-61
2023/05/29 05:31:06;;;;;;;6.87;5.70;;;;;;;13.40;100.00;96344.41;4988828;28;104840;-61
2023/05/29 05:33:55;;;;;;;7.33;5.47;;;;;;;13.54;100.00;96350.00;4988635;28;105195;-61
2023/05/29 05:36:22;;;;;;;6.10;5.50;;;;;;;13.73;100.00;96351.06;4997851;28;101935;-61
2023/05/29 05:38:54;;;;;;;6.63;6.00;;;;;;;13.84;100.00;96348.06;5009362;28;104879;-61
2023/05/29 05:41:22;;;;;;;6.60;5.70;;;;;;;13.95;100.00;96349.66;5008743;28;102312;-61
2023/05/29 05:44:00;;;;;;;7.83;5.30;;;;;;;13.99;100.00;96356.06;5008971;28;104903;-61
2023/05/29 05:46:33;;;;;;;6.83;5.60;;;;;;;14.02;100.00;96349.38;5008508;28;105260;-61
2023/05/29 05:49:01;;;;;;;7.00;5.30;;;;;;;14.12;100.00;96355.47;5008861;28;102038;-61
2023/05/29 05:51:29;;;;;;;5.97;5.37;;;;;;;14.29;100.00;96349.84;5009347;28;104933;-61
2023/05/29 05:54:08;;;;;;;6.13;5.50;;;;;;;14.37;100.00;96351.91;5007901;28;104984;-61
2023/05/29 05:56:34;;;;;;;7.40;5.60;;;;;;;14.54;100.00;96363.06;5009164;28;101917;-61
2023/05/29 05:59:01;;;;;;;8.30;6.03;;;;;;;14.63;100.00;96356.06;5005378;28;105449;-61
2023/05/29 06:01:29;;;;;;;8.17;5.20;;;;;;;14.70;100.00;96360.06;4991825;28;105042;-61
2023/05/29 06:04:35;;;;;;;7.07;5.70;;;;;;;14.85;100.00;96349.25;5005506;28;105912;-61
2023/05/29 06:07:04;;;;;;;8.27;7.10;;;;;;;15.12;100.00;96351.47;5009335;28;104241;-61
2023/05/29 06:09:30;;;;;;;10.73;6.47;;;;;;;15.17;100.00;96356.78;5008894;28;101910;-61
2023/05/29 06:11:57;;;;;;;19.60;14.83;;;;;;;15.20;100.00;96361.59;5008707;28;104821;-61
2023/05/29 06:14:25;;;;;;;13.67;9.13;;;;;;;15.25;100.00;96359.69;5003637;28;105204;-61
2023/05/29 06:16:54;;;;;;;13.07;8.40;;;;;;;15.32;100.00;96364.72;4999910;28;101988;-61
2023/05/29 06:19:21;;;;;;;13.73;11.30;;;;;;;15.45;100.00;96369.47;5008467;28;105751;-61
2023/05/29 06:21:55;;;;;;;11.33;9.13;;;;;;;15.65;100.00;96369.28;5010260;28;105437;-61
2023/05/29 06:24:23;;;;;;;6.23;5.10;;;;;;;15.83;100.00;96374.75;5008474;28;104891;-61
2023/05/29 06:26:51;;;;;;;8.40;6.53;;;;;;;16.14;100.00;96367.19;5007528;28;105573;-61
2023/05/29 06:29:19;;;;;;;6.40;5.33;;;;;;;15.94;100.00;96364.69;5008451;28;102044;-61
2023/05/29 06:31:46;;;;;;;7.40;5.40;;;;;;;15.68;100.00;96366.84;5008470;28;105141;-61
2023/05/29 06:34:21;;;;;;;6.63;5.73;;;;;;;16.04;100.00;96367.28;5004561;28;105544;-61
2023/05/29 06:36:48;;;;;;;11.13;7.23;;;;;;;16.21;100.00;96368.44;4988603;28;101800;-61
2023/05/29 06:39:15;;;;;;;7.47;6.07;;;;;;;16.53;100.00;96370.50;5023690;28;104916;-61
2023/05/29 06:41:43;;;;;;;5.70;5.20;;;;;;;16.51;100.00;96383.41;5008963;28;105254;-61
2023/05/29 06:44:20;;;;;;;8.20;5.80;;;;;;;16.56;100.00;96369.94;5015218;28;101964;-61
2023/05/29 06:46:48;;;;;;;5.90;5.30;;;;;;;16.60;100.00;96365.56;5011326;28;105302;-61
2023/05/29 06:49:16;;;;;;;6.63;5.40;;;;;;;16.49;100.00;96374.81;5008193;28;102198;-61
2023/05/29 06:51:45;;;;;;;8.17;5.70;;;;;;;16.20;100.00;96380.25;5008662;28;106560;-61
2023/05/29 06:54:31;;;;;;;9.43;6.47;;;;;;;15.95;100.00;96375.16;5011102;28;105629;-61
2023/05/29 06:57:00;;;;;;;7.53;5.20;;;;;;;16.52;100.00;96382.31;5011552;28;102033;-61
2023/05/29 06:59:26;;;;;;;8.10;5.90;;;;;;;16.42;100.00;96382.44;5011538;28;105259;-61
2023/05/29 07:01:53;;;;;;;6.83;5.73;;;;;;;16.86;100.00;96380.25;5011009;28;105434;-61
2023/05/29 07:04:29;;;;;;;6.63;5.60;;;;;;;17.22;100.00;96382.13;5011789;28;101952;-61
2023/05/29 07:06:57;;;;;;;8.03;5.43;;;;;;;17.52;100.00;96370.94;5014301;28;103751;-61
2023/05/29 07:09:25;;;;;;;7.03;5.40;;;;;;;17.68;100.00;96376.84;5011365;28;101913;-61
2023/05/29 07:11:53;;;;;;;5.87;5.10;;;;;;;17.94;100.00;96375.31;5007798;28;105342;-60
2023/05/29 07:14:47;;;;;;;6.60;5.20;;;;;;;17.91;100.00;96382.09;4990888;28;105258;-60
2023/05/29 07:17:16;;;;;;;6.77;5.70;;;;;;;17.94;100.00;96386.84;5025827;28;102076;-60
2023/05/29 07:19:43;;;;;;;8.37;6.03;;;;;;;18.14;100.00;96385.72;5011209;28;105116;-60
2023/05/29 07:22:11;;;;;;;5.70;5.10;;;;;;;18.31;100.00;96394.00;5010736;28;105141;-60
2023/05/29 07:24:38;;;;;;;6.13;5.53;;;;;;;17.98;100.00;96387.09;5010908;28;101984;-60
2023/05/29 07:27:06;;;;;;;8.53;5.53;;;;;;;18.00;100.00;96395.66;5007412;28;105063;-60
2023/05/29 07:29:33;;;;;;;7.03;5.50;;;;;;;18.14;100.00;96393.78;5013839;28;107197;-60
2023/05/29 07:32:03;;;;;;;6.87;5.13;;;;;;;18.31;100.00;96396.69;5007679;28;104998;-59
2023/05/29 07:34:38;;;;;;;5.63;5.03;;;;;;;18.79;100.00;96389.81;4990818;28;105207;-62
2023/05/29 07:37:07;;;;;;;6.43;5.23;;;;;;;19.06;100.00;96392.44;4991297;28;101896;-63
2023/05/29 07:39:36;;;;;;;5.37;4.73;;;;;;;18.99;100.00;96395.56;5010636;28;105166;-60
2023/05/29 07:42:12;;;;;;;6.00;5.30;;;;;;;18.87;100.00;96389.91;5010714;28;105230;-61
2023/05/29 07:44:50;;;;;;;8.27;4.93;;;;;;;19.17;100.00;96397.31;5010988;28;102056;-62
2023/05/29 07:47:21;;;;;;;6.77;5.10;;;;;;;18.90;100.00;96380.41;4992045;28;103802;-62
2023/05/29 07:49:48;;;;;;;6.97;5.37;;;;;;;18.83;100.00;96382.72;5011058;28;102807;-62
2023/05/29 07:52:15;;;;;;;6.13;4.90;;;;;;;19.18;100.00;96380.03;5013389;28;101998;-63
2023/05/29 07:54:45;;;;;;;5.17;4.67;;;;;;;19.50;100.00;96377.16;4991935;28;105912;-61
2023/05/29 07:57:25;;;;;;;5.97;5.13;;;;;;;19.15;100.00;96377.97;5011189;28;102027;-62
2023/05/29 07:59:53;;;;;;;5.93;5.33;;;;;;;18.78;100.00;96383.63;5010375;28;104546;-61
2023/05/29 08:02:22;;;;;;;7.27;5.57;;;;;;;18.86;100.00;96382.13;5006596;28;105603;-61
2023/05/29 08:05:21;;;;;;;6.47;5.47;;;;;;;19.36;100.00;96386.41;4979314;28;101919;-63
2023/05/29 08:07:48;;;;;;;7.57;5.30;;;;;;;19.70;100.00;96378.56;5000130;28;105148;-62
2023/05/29 08:10:16;;;;;;;7.17;5.00;;;;;;;19.90;100.00;96386.16;5011636;28;102805;-61
2023/05/29 08:12:43;;;;;;;6.03;4.83;;;;;;;20.42;100.00;96382.59;5010361;28;103905;-62
2023/05/29 08:15:19;;;;;;;7.70;5.30;;;;;;;20.45;100.00;96382.78;5009803;28;105204;-63
2023/05/29 08:17:48;;;;;;;6.53;5.27;;;;;;;20.10;100.00;96381.03;5008640;28;101817;-61
2023/05/29 08:20:16;;;;;;;6.87;5.43;;;;;;;20.35;100.00;96383.06;5010907;28;102334;-62
2023/05/29 08:22:43;;;;;;;6.17;5.07;;;;;;;19.66;100.00;96382.97;5010889;28;102596;-61
2023/05/29 08:25:12;;;;;;;5.57;4.80;;;;;;;19.79;100.00;96379.41;5010367;28;101971;-62
2023/05/29 08:27:39;;;;;;;6.63;5.40;;;;;;;20.20;100.00;96394.28;5009602;28;106018;-62
2023/05/29 08:30:07;;;;;;;7.57;4.93;;;;;;;20.22;100.00;96389.34;5009484;28;105817;-62
2023/05/29 08:32:34;;;;;;;5.70;4.57;;;;;;;20.17;100.00;96391.41;5007822;28;101941;-62
2023/05/29 08:35:36;;;;;;;6.37;4.90;;;;;;;19.34;100.00;96389.41;5014524;28;102540;-62
2023/05/29 08:38:03;;;;;;;5.93;5.07;;;;;;;20.51;100.00;96388.84;5011267;28;101866;-61
2023/05/29 08:40:30;;;;;;;5.50;4.70;;;;;;;20.45;100.00;96382.78;5010013;28;105620;-61
2023/05/29 08:43:00;;;;;;;6.80;4.60;;;;;;;20.88;100.00;96383.69;5008898;28;105325;-61
2023/05/29 08:45:53;;;;;;;5.67;4.93;;;;;;;20.12;100.00;96386.13;5011573;28;101881;-61
2023/05/29 08:48:24;;;;;;;6.90;4.50;;;;;;;20.39;100.00;96381.31;5011457;28;102296;-61
2023/05/29 08:50:54;;;;;;;5.17;4.10;;;;;;;20.98;100.00;96388.03;5010835;28;103145;-60
2023/05/29 08:53:22;;;;;;;6.70;5.20;;;;;;;20.04;100.00;96378.75;5006394;28;102012;-62
2023/05/29 08:55:51;;;;;;;7.27;5.33;;;;;;;20.60;100.00;96381.56;5022631;28;104802;-60
2023/05/29 08:58:18;;;;;;;5.93;4.43;;;;;;;21.09;100.00;96373.88;4995664;28;104163;-62
2023/05/29 09:00:47;;;;;;;5.27;4.70;;;;;;;21.46;100.00;96375.16;5043063;27;104844;-60
2023/05/29 09:04:01;;;;;;;11.40;4.53;;;;;;;21.83;100.00;96385.34;5008551;28;105472;-62
2023/05/29 09:06:30;;;;;;;7.37;4.37;;;;;;;22.24;100.00;96380.16;5010552;28;101901;-67
2023/05/29 09:08:58;;;;;;;5.50;4.50;;;;;;;22.57;100.00;96378.47;5010784;28;102810;-68
2023/05/29 09:11:25;;;;;;;5.87;4.50;;;;;;;21.55;100.00;96378.66;5008135;28;105483;-62
2023/05/29 09:13:53;;;;;;;5.03;4.37;;;;;;;21.81;100.00;96371.34;5009473;28;101921;-63
2023/05/29 09:16:20;;;;;;;5.90;4.80;;;;;;;22.00;100.00;96374.47;5009353;28;105467;-62
2023/05/29 09:18:48;;;;;;;4.87;4.37;;;;;;;21.81;100.00;96377.56;5008658;28;105237;-62
2023/05/29 09:21:27;;;;;;;5.63;4.70;;;;;;;21.46;100.00;96372.47;5012487;28;101897;-61
2023/05/29 09:24:06;;;;;;;6.73;4.63;;;;;;;22.29;100.00;96369.16;5008594;28;105768;-61
2023/05/29 09:26:34;;;;;;;5.47;4.07;;;;;;;22.75;100.00;96374.53;5010651;28;101729;-62
2023/05/29 09:29:02;;;;;;;5.20;4.17;;;;;;;22.52;93.26;96370.50;5010416;28;102556;-62
2023/05/29 09:31:30;;;;;;;5.27;3.87;;;;;;;23.00;86.12;96368.94;5010060;28;103111;-66
2023/05/29 09:34:03;;;;;;;6.13;4.13;;;;;;;23.24;99.60;96381.91;5009063;28;101892;-62
2023/05/29 09:36:30;;;;;;;5.80;3.80;;;;;;;23.84;81.47;96379.47;5010770;28;102305;-63
2023/05/29 09:38:57;;;;;;;5.80;3.57;;;;;;;24.32;67.83;96366.84;5008486;28;105157;-61
2023/05/29 09:41:27;;;;;;;4.50;3.63;;;;;;;24.47;63.47;96376.25;5009089;28;101932;-63
2023/05/29 09:43:56;;;;;;;4.80;3.60;;;;;;;24.85;55.30;96379.47;5013179;28;102363;-60
2023/05/29 09:46:23;;;;;;;5.30;3.87;;;;;;;25.19;55.67;96370.78;5010636;28;101773;-60
2023/05/29 09:48:50;;;;;;;5.47;3.93;;;;;;;25.11;53.63;96366.28;5008988;28;103527;-64
2023/05/29 09:51:23;;;;;;;4.67;3.80;;;;;;;25.22;59.65;96370.13;5009498;28;102864;-64
2023/05/29 09:53:53;;;;;;;4.87;3.90;;;;;;;25.42;59.42;96369.97;5008858;28;102001;-64
2023/05/29 09:56:24;;;;;;;6.13;3.77;;;;;;;25.80;56.04;96370.28;5010480;28;103088;-63
2023/05/29 09:58:55;;;;;;;5.73;3.97;;;;;;;25.75;50.36;96370.53;5008094;28;105899;-63
2023/05/29 10:01:24;;;;;;;4.17;3.77;;;;;;;25.12;45.34;96365.16;5008947;28;101791;-63
2023/05/29 10:04:24;;;;;;;4.57;4.03;;;;;;;25.57;50.77;96376.63;4997896;28;105002;-63
2023/05/29 10:06:51;;;;;;;6.13;3.60;;;;;;;26.06;50.51;96370.66;4993333;28;102459;-63
2023/05/29 10:09:21;;;;;;;4.80;4.07;;;;;;;26.16;50.96;96377.53;4984985;28;106724;-63
2023/05/29 10:11:50;;;;;;;3.80;3.40;;;;;;;26.38;44.05;96372.25;5004617;28;105387;-63
2023/05/29 10:14:33;;;;;;;5.40;3.60;;;;;;;26.70;46.65;96382.03;5022094;28;101969;-63
2023/05/29 10:17:04;;;;;;;4.40;3.90;;;;;;;26.77;44.88;96370.53;4988644;28;105578;-63
2023/05/29 10:19:34;;;;;;;4.50;3.90;;;;;;;26.87;43.71;96370.75;4989532;28;101745;-63
2023/05/29 10:22:02;;;;;;;4.40;3.70;;;;;;;26.48;42.73;96368.22;4988595;28;102202;-63
2023/05/29 10:24:38;;;;;;;4.03;3.63;;;;;;;26.11;45.38;96364.91;5003805;28;102446;-63
2023/05/29 10:27:06;;;;;;;5.03;4.40;;;;;;;24.85;43.88;96354.97;5008923;28;102470;-63
2023/05/29 10:29:38;;;;;;;5.43;4.17;;;;;;;24.80;46.09;96360.66;5013529;28;101707;-63
2023/05/29 10:32:20;;;;;;;4.30;3.67;;;;;;;25.51;49.72;96356.22;5009212;28;102447;-63
2023/05/29 10:35:12;;;;;;;4.20;3.60;;;;;;;26.39;46.46;96351.22;5008664;28;101880;-63
2023/05/29 10:37:45;;;;;;;4.10;3.70;;;;;;;26.24;45.54;96349.28;5008390;28;105061;-63
2023/05/29 10:40:13;;;;;;;4.13;3.60;;;;;;;26.55;43.75;96354.78;4991404;28;102820;-63
2023/05/29 10:42:47;;;;;;;4.30;3.73;;;;;;;27.02;42.41;96361.75;5009912;28;102002;-63
2023/05/29 10:45:52;;;;;;;4.03;3.50;;;;;;;27.21;41.31;96359.13;5009713;28;102991;-63
2023/05/29 10:48:42;;;;;;;4.23;3.80;;;;;;;27.16;40.28;96356.63;4947413;28;103135;-63
2023/05/29 10:51:10;;;;;;;3.70;3.30;;;;;;;27.06;39.74;96351.72;4951555;28;101923;-63
2023/05/29 10:54:31;;;;;;;4.33;3.93;;;;;;;27.04;39.06;96353.22;4930352;28;105646;-63
2023/05/29 10:57:01;;;;;;;4.87;3.43;;;;;;;26.80;41.71;96356.19;4947988;28;101792;-63
2023/05/29 10:59:28;;;;;;;4.00;3.60;;;;;;;27.57;39.06;96349.72;4931490;28;105163;-63
2023/05/29 11:01:58;;;;;;;4.80;3.80;;;;;;;27.17;38.23;96352.78;4930757;28;105805;-63
2023/05/29 11:04:31;;;;;;;3.83;3.40;;;;;;;27.38;37.69;96346.97;4947785;28;101951;-63
2023/05/29 11:06:58;;;;;;;4.33;3.50;;;;;;;27.18;39.58;96353.59;4930715;28;105304;-63
2023/05/29 11:09:31;;;;;;;4.30;3.77;;;;;;;27.51;38.03;96351.16;4931004;28;104314;-63
2023/05/29 11:15:26;;;;;;;4.23;3.27;;;;;;;27.77;38.69;96343.09;5031653;27;101744;-64
2023/05/29 11:17:55;;;;;;;4.67;3.50;;;;;;;27.84;37.50;96348.75;5025369;27;105354;-64
2023/05/29 11:20:36;;;;;;;5.57;3.58;;;;;;;27.74;35.87;96352.03;5027066;27;102320;-64
2023/05/29 11:23:07;;;;;;;4.10;3.67;;;;;;;27.55;36.51;96352.81;5025726;27;105500;-64
2023/05/29 11:25:36;;;;;;;4.38;3.17;;;;;;;27.84;35.82;96348.75;5025090;28;105387;-64
2023/05/29 11:28:08;;;;;;;4.20;3.67;;;;;;;28.10;35.64;96348.81;5027009;27;101859;-64
2023/05/29 11:30:47;;;;;;;7.47;3.28;;;;;;;28.11;36.27;96347.69;5030001;27;105702;-64
2023/05/29 11:33:24;;;;;;;4.18;3.78;;;;;;;28.19;33.69;96350.19;5046918;27;102504;-64
2023/05/29 11:35:57;;;;;;;4.85;3.67;;;;;;;27.83;35.58;96347.13;5050110;27;101722;-64
2023/05/29 11:38:24;;;;;;;4.65;3.53;;;;;;;28.05;33.79;96349.94;5042315;27;105589;-64
2023/05/29 11:40:51;;;;;;;6.38;3.90;;;;;;;27.94;35.61;96348.94;5033205;27;102120;-63
2023/05/29 11:43:18;;;;;;;4.85;3.55;;;;;;;28.31;35.19;96344.53;5045820;27;103966;-64
2023/05/29 11:45:47;;;;;;;5.28;3.90;;;;;;;27.79;34.62;96340.84;5045801;27;103160;-64